createdAt,value
2022-11-25T00:08:42.714Z,2.67
2022-11-25T00:18:49.151Z,2.60
2022-11-25T00:28:55.298Z,2.61
2022-11-25T00:39:06.451Z,2.63
2022-11-25T00:49:14.856Z,2.48
2022-11-25T00:59:21.000Z,2.42
2022-11-25T01:09:26.845Z,2.44
2022-11-25T01:19:31.024Z,2.50
2022-11-25T01:29:36.744Z,2.47
2022-11-25T01:39:40.709Z,2.39
2022-11-25T01:50:02.878Z,2.40
2022-11-25T02:00:08.366Z,2.37
2022-11-25T02:10:29.106Z,2.43
2022-11-25T02:20:32.888Z,2.57
2022-11-25T02:30:36.793Z,2.73
2022-11-25T02:40:51.384Z,2.81
2022-11-25T02:50:56.208Z,2.76
2022-11-25T03:01:00.522Z,2.72
2022-11-25T03:11:05.178Z,2.75
2022-11-25T03:21:09.864Z,2.76
2022-11-25T03:31:13.671Z,2.68
2022-11-25T03:41:17.701Z,2.51
2022-11-25T03:51:21.572Z,2.51
2022-11-25T04:01:25.745Z,2.54
2022-11-25T04:11:48.589Z,2.50
2022-11-25T04:21:53.571Z,2.52
2022-11-25T04:31:57.669Z,2.57
2022-11-25T04:42:20.253Z,2.66
2022-11-25T04:52:24.335Z,2.64
2022-11-25T05:02:29.394Z,2.67
2022-11-25T05:12:49.010Z,2.77
2022-11-25T05:22:54.795Z,2.91
2022-11-25T05:32:59.210Z,2.89
2022-11-25T05:43:03.731Z,2.82
2022-11-25T05:53:08.591Z,2.88
2022-11-25T06:03:12.795Z,2.93
2022-11-25T06:13:16.958Z,2.90
2022-11-25T06:23:22.771Z,2.75
2022-11-25T06:33:27.243Z,2.76
2022-11-25T06:43:33.049Z,2.94
2022-11-25T06:53:37.740Z,2.98
2022-11-25T07:03:43.133Z,3.03
2022-11-25T07:13:50.428Z,3.17
2022-11-25T07:23:54.453Z,3.22
2022-11-25T07:34:04.453Z,3.31
2022-11-25T07:44:09.793Z,3.48
2022-11-25T07:54:39.736Z,3.55
2022-11-25T08:04:43.634Z,3.45
2022-11-25T08:14:47.420Z,3.49
2022-11-25T08:24:51.287Z,3.62
2022-11-25T08:34:55.077Z,3.70
2022-11-25T08:44:59.471Z,3.81
2022-11-25T08:55:04.252Z,3.73
2022-11-25T09:05:08.155Z,3.62
2022-11-25T09:15:12.534Z,3.78
2022-11-25T09:25:16.262Z,4.02
2022-11-25T09:35:21.417Z,4.30
2022-11-25T09:46:02.891Z,4.45
2022-11-25T09:56:20.000Z,4.50
2022-11-25T10:06:30.117Z,4.99
2022-11-25T10:16:40.044Z,5.06
2022-11-25T10:26:55.180Z,5.19
2022-11-25T10:37:02.580Z,5.56
2022-11-25T10:47:33.794Z,5.86
2022-11-25T10:57:37.695Z,5.72
2022-11-25T11:07:44.096Z,5.69
2022-11-25T11:17:48.935Z,5.77
2022-11-25T11:27:52.829Z,5.77
2022-11-25T11:38:07.971Z,5.87
2022-11-25T11:48:41.378Z,5.96
2022-11-25T11:58:51.716Z,6.02
2022-11-25T12:09:05.409Z,5.89
2022-11-25T12:19:33.959Z,5.85
2022-11-25T12:30:19.362Z,5.89
2022-11-25T12:40:47.994Z,5.81
2022-11-25T12:51:07.216Z,5.81
2022-11-25T13:01:37.933Z,5.82
2022-11-25T13:12:09.957Z,5.87
2022-11-25T13:22:24.003Z,5.86
2022-11-25T13:32:31.874Z,5.58
2022-11-25T13:42:44.138Z,5.26
2022-11-25T13:52:57.343Z,5.14
2022-11-25T14:03:47.340Z,5.14
2022-11-25T14:14:09.650Z,4.92
2022-11-25T14:24:23.509Z,4.57
2022-11-25T14:34:57.817Z,4.31
2022-11-25T14:45:02.580Z,4.13
2022-11-25T14:55:07.478Z,3.82
2022-11-25T15:05:11.418Z,3.64
2022-11-25T15:15:16.319Z,3.38
2022-11-25T15:25:20.900Z,3.30
2022-11-25T15:35:26.814Z,3.17
2022-11-25T15:45:44.364Z,3.05
2022-11-25T15:55:48.349Z,3.05
2022-11-25T16:06:02.638Z,3.04
2022-11-25T16:16:41.180Z,2.97
2022-11-25T16:27:08.217Z,3.01
2022-11-25T16:37:12.736Z,3.05
2022-11-25T16:47:19.194Z,3.00
2022-11-25T16:57:23.635Z,2.90
2022-11-25T17:07:35.058Z,2.82
2022-11-25T17:17:40.918Z,2.89
2022-11-25T17:27:46.946Z,2.81
2022-11-25T17:37:51.446Z,2.74
2022-11-25T17:47:56.091Z,2.51
2022-11-25T17:58:02.110Z,2.45
2022-11-25T18:08:06.175Z,2.44
2022-11-25T18:18:28.399Z,2.48
2022-11-25T18:28:33.981Z,2.50
2022-11-25T18:38:39.079Z,2.47
2022-11-25T18:48:44.889Z,2.43
2022-11-25T18:58:52.379Z,2.57
2022-11-25T19:09:00.839Z,2.63
2022-11-25T19:19:05.708Z,2.73
2022-11-25T19:29:21.479Z,2.76
2022-11-25T19:39:29.719Z,2.70
2022-11-25T19:49:36.656Z,2.76
2022-11-25T19:59:41.948Z,2.73
2022-11-25T20:09:48.379Z,2.52
2022-11-25T20:19:55.218Z,2.53
2022-11-25T20:30:01.146Z,2.69
2022-11-25T20:40:16.907Z,2.67
2022-11-25T20:50:23.692Z,2.55
2022-11-25T21:00:29.414Z,2.62
2022-11-25T21:10:36.259Z,2.67
2022-11-25T21:20:41.669Z,2.67
2022-11-25T21:30:47.409Z,2.58
2022-11-25T21:40:56.583Z,2.40
2022-11-25T21:51:00.759Z,2.32
2022-11-25T22:01:05.072Z,2.45
2022-11-25T22:11:14.002Z,2.68
2022-11-25T22:21:17.683Z,2.61
2022-11-25T22:31:28.072Z,2.46
2022-11-25T22:41:32.273Z,2.54
2022-11-25T22:51:36.503Z,2.67
2022-11-25T23:01:40.457Z,2.71
2022-11-25T23:11:45.458Z,2.56
2022-11-25T23:21:49.532Z,2.54
2022-11-25T23:31:53.755Z,2.61
2022-11-25T23:41:57.531Z,2.62
2022-11-25T23:52:07.521Z,2.52
